Time;durP1;ratioP1;P1;durP2;ratioP2;P2;SDS_P1;SDS_P2;PMS_P1;PMS_P2;Temp;Humidity;BMP_temperature;BMP_pressure;BME280_temperature;BME280_humidity;BME280_pressure;Samples;Min_cycle;Max_cycle;Signal;HPM_P1;HPM_P2
2022/02/23 00:00:30;;;;;;;19.93;2.70;;;;;;;;;;5045424;28;20197;-66
2022/02/23 00:02:56;;;;;;;20.07;2.47;;;;;;;;;;5038413;28;20814;-67
2022/02/23 00:05:21;;;;;;;17.87;3.13;;;;;;;;;;5058004;28;20193;-67
2022/02/23 00:07:46;;;;;;;29.00;3.10;;;;;;;;;;5041970;28;20780;-67
2022/02/23 00:10:12;;;;;;;26.43;2.70;;;;;;;;;;5043271;28;20658;-67
2022/02/23 00:12:38;;;;;;;19.80;2.50;;;;;;;;;;5043066;28;20263;-68
2022/02/23 00:15:04;;;;;;;22.40;2.93;;;;;;;;;;5046278;28;20684;-67
2022/02/23 00:17:30;;;;;;;20.77;2.33;;;;;;;;;;5044235;28;20280;-67
2022/02/23 00:19:56;;;;;;;17.07;2.77;;;;;;;;;;5050343;28;20291;-67
2022/02/23 00:22:23;;;;;;;15.87;2.23;;;;;;;;;;5043516;28;20188;-66
2022/02/23 00:24:49;;;;;;;19.30;2.67;;;;;;;;;;5047297;28;20261;-67
2022/02/23 00:27:14;;;;;;;22.43;3.17;;;;;;;;;;5044143;28;20304;-66
2022/02/23 00:29:40;;;;;;;20.40;2.03;;;;;;;;;;5044373;28;20186;-67
2022/02/23 00:32:06;;;;;;;22.27;2.97;;;;;;;;;;5040990;28;20278;-66
2022/02/23 00:34:32;;;;;;;24.57;2.77;;;;;;;;;;5045437;28;20597;-67
2022/02/23 00:36:57;;;;;;;22.80;2.67;;;;;;;;;;5044260;28;20243;-66
2022/02/23 00:39:23;;;;;;;20.70;2.20;;;;;;;;;;5047077;28;20748;-67
2022/02/23 00:41:49;;;;;;;14.90;2.17;;;;;;;;;;5046361;28;20220;-67
2022/02/23 00:44:15;;;;;;;21.03;3.37;;;;;;;;;;5042179;28;20287;-66
2022/02/23 00:46:40;;;;;;;21.60;2.57;;;;;;;;;;5048283;28;20325;-66
2022/02/23 00:49:06;;;;;;;23.47;3.10;;;;;;;;;;5046725;28;20185;-67
2022/02/23 00:51:32;;;;;;;16.73;3.07;;;;;;;;;;5046693;28;20205;-67
2022/02/23 00:53:57;;;;;;;19.93;2.60;;;;;;;;;;5044871;28;20198;-67
2022/02/23 00:56:23;;;;;;;20.80;3.00;;;;;;;;;;5047847;28;20559;-67
2022/02/23 00:58:48;;;;;;;19.90;2.53;;;;;;;;;;5038457;28;20189;-66
2022/02/23 01:01:14;;;;;;;18.63;3.00;;;;;;;;;;5046728;28;20726;-67
2022/02/23 01:03:39;;;;;;;25.50;2.90;;;;;;;;;;5040536;28;20251;-67
2022/02/23 01:06:04;;;;;;;18.30;2.30;;;;;;;;;;5055316;28;20193;-66
2022/02/23 01:08:30;;;;;;;29.90;3.33;;;;;;;;;;5039554;28;20192;-66
2022/02/23 01:10:55;;;;;;;18.90;2.67;;;;;;;;;;5046714;28;20197;-66
2022/02/23 01:13:21;;;;;;;21.23;2.50;;;;;;;;;;5040635;28;20783;-67
2022/02/23 01:15:46;;;;;;;19.83;2.60;;;;;;;;;;5043897;28;20557;-67
2022/02/23 01:18:11;;;;;;;21.37;2.60;;;;;;;;;;5043811;28;20189;-66
2022/02/23 01:20:37;;;;;;;24.50;2.67;;;;;;;;;;5046605;28;20699;-66
2022/02/23 01:23:03;;;;;;;18.73;2.50;;;;;;;;;;5044100;28;20656;-66
2022/02/23 01:25:31;;;;;;;20.43;2.50;;;;;;;;;;5045289;28;20246;-66
2022/02/23 01:28:01;;;;;;;26.03;3.00;;;;;;;;;;5033863;28;20224;-67
2022/02/23 01:30:27;;;;;;;20.10;2.50;;;;;;;;;;5047406;28;20216;-66
2022/02/23 01:32:52;;;;;;;17.80;2.27;;;;;;;;;;5047164;28;20265;-66
2022/02/23 01:35:18;;;;;;;20.87;2.93;;;;;;;;;;5042308;28;20265;-66
2022/02/23 01:37:43;;;;;;;27.30;2.87;;;;;;;;;;5049750;28;20193;-66
2022/02/23 01:40:10;;;;;;;20.43;2.50;;;;;;;;;;5044566;28;20312;-66
2022/02/23 01:42:35;;;;;;;17.97;3.07;;;;;;;;;;5043183;28;20212;-66
2022/02/23 01:45:00;;;;;;;20.53;2.70;;;;;;;;;;5040672;28;20193;-66
2022/02/23 01:47:26;;;;;;;24.17;2.90;;;;;;;;;;5047373;28;20193;-67
2022/02/23 01:49:53;;;;;;;26.33;3.17;;;;;;;;;;5040297;28;20216;-67
2022/02/23 01:52:19;;;;;;;21.63;2.40;;;;;;;;;;5040834;28;20205;-67
2022/02/23 01:54:44;;;;;;;17.73;2.73;;;;;;;;;;5040246;28;20242;-67
2022/02/23 01:57:09;;;;;;;20.20;2.80;;;;;;;;;;5044786;28;20181;-67
2022/02/23 01:59:35;;;;;;;27.30;3.37;;;;;;;;;;5040841;28;20196;-67
2022/02/23 02:02:00;;;;;;;22.83;3.23;;;;;;;;;;5043942;28;20190;-68
2022/02/23 02:04:26;;;;;;;22.53;3.00;;;;;;;;;;5036731;28;20204;-68
2022/02/23 02:06:52;;;;;;;28.93;4.00;;;;;;;;;;5047196;28;20277;-68
2022/02/23 02:09:18;;;;;;;26.20;2.67;;;;;;;;;;5039073;28;20208;-66
2022/02/23 02:11:44;;;;;;;21.63;2.80;;;;;;;;;;5044366;28;20316;-66
2022/02/23 02:14:10;;;;;;;17.03;2.87;;;;;;;;;;5038891;28;20276;-67
2022/02/23 02:16:35;;;;;;;21.73;3.10;;;;;;;;;;5043559;28;20540;-67
2022/02/23 02:19:03;;;;;;;18.33;3.50;;;;;;;;;;5043689;28;20197;-67
2022/02/23 02:21:51;;;;;;;26.40;2.80;;;;;;;;;;5049584;28;20193;-67
2022/02/23 02:24:16;;;;;;;29.73;3.17;;;;;;;;;;5053616;28;20189;-67
2022/02/23 02:26:42;;;;;;;22.20;3.07;;;;;;;;;;5045427;28;20521;-67
2022/02/23 02:29:07;;;;;;;28.33;3.67;;;;;;;;;;5045717;28;20407;-67
2022/02/23 02:31:32;;;;;;;23.67;3.67;;;;;;;;;;5047071;28;20339;-68
2022/02/23 02:33:58;;;;;;;20.77;2.90;;;;;;;;;;5045875;28;20254;-67
2022/02/23 02:36:24;;;;;;;23.17;2.93;;;;;;;;;;5047115;28;20178;-67
2022/02/23 02:38:49;;;;;;;29.33;3.80;;;;;;;;;;5051994;28;20703;-67
2022/02/23 02:41:14;;;;;;;21.20;3.33;;;;;;;;;;5045990;28;20431;-67
2022/02/23 02:43:39;;;;;;;18.27;2.80;;;;;;;;;;5047297;28;20182;-67
2022/02/23 02:46:05;;;;;;;25.10;3.90;;;;;;;;;;5043650;28;20235;-67
2022/02/23 02:48:30;;;;;;;20.80;2.80;;;;;;;;;;5044995;28;20193;-67
2022/02/23 02:50:55;;;;;;;18.50;3.03;;;;;;;;;;5043575;28;20201;-67
2022/02/23 02:53:21;;;;;;;22.97;3.13;;;;;;;;;;5049053;28;20660;-67
2022/02/23 02:55:46;;;;;;;24.07;3.43;;;;;;;;;;5043970;28;20601;-67
2022/02/23 02:58:13;;;;;;;20.87;3.00;;;;;;;;;;5053540;28;20207;-67
2022/02/23 03:00:39;;;;;;;17.57;3.50;;;;;;;;;;5046612;28;20732;-67
2022/02/23 03:03:04;;;;;;;32.70;3.83;;;;;;;;;;5047661;28;20377;-67
2022/02/23 03:05:31;;;;;;;23.93;3.13;;;;;;;;;;5044786;28;20230;-67
2022/02/23 03:07:56;;;;;;;23.50;2.97;;;;;;;;;;5049082;28;20609;-67
2022/02/23 03:10:22;;;;;;;18.80;2.87;;;;;;;;;;5047609;28;20254;-67
2022/02/23 03:12:47;;;;;;;16.87;2.83;;;;;;;;;;5045047;28;20271;-67
2022/02/23 03:15:12;;;;;;;19.40;3.10;;;;;;;;;;5043472;28;20201;-67
2022/02/23 03:17:38;;;;;;;19.20;2.70;;;;;;;;;;5047872;28;20213;-67
2022/02/23 03:20:04;;;;;;;20.23;4.03;;;;;;;;;;5047673;28;20643;-67
2022/02/23 03:22:29;;;;;;;21.87;2.93;;;;;;;;;;5043592;28;20205;-67
2022/02/23 03:24:55;;;;;;;27.87;3.23;;;;;;;;;;5040026;28;20198;-67
2022/02/23 03:27:20;;;;;;;22.53;2.70;;;;;;;;;;5044850;28;20246;-67
2022/02/23 03:29:45;;;;;;;22.03;3.43;;;;;;;;;;5044635;28;20266;-67
2022/02/23 03:32:11;;;;;;;17.90;2.67;;;;;;;;;;5044503;28;20217;-67
2022/02/23 03:34:36;;;;;;;15.23;2.47;;;;;;;;;;5050262;28;20193;-67
2022/02/23 03:37:02;;;;;;;30.10;4.13;;;;;;;;;;5043774;28;20720;-67
2022/02/23 03:39:27;;;;;;;26.10;2.90;;;;;;;;;;5046047;28;20719;-67
2022/02/23 03:41:52;;;;;;;23.50;3.40;;;;;;;;;;5041798;28;20190;-67
2022/02/23 03:44:18;;;;;;;18.07;2.70;;;;;;;;;;5043231;28;20187;-67
2022/02/23 03:46:43;;;;;;;18.97;3.00;;;;;;;;;;5041341;28;20228;-68
2022/02/23 03:49:08;;;;;;;26.70;3.10;;;;;;;;;;5043363;28;20186;-67
2022/02/23 03:51:34;;;;;;;25.13;3.97;;;;;;;;;;5043239;28;20213;-67
2022/02/23 03:53:59;;;;;;;17.23;2.40;;;;;;;;;;5045556;28;20178;-67
2022/02/23 03:56:40;;;;;;;17.43;2.70;;;;;;;;;;5045289;28;20196;-67
2022/02/23 03:59:10;;;;;;;25.07;2.73;;;;;;;;;;5045972;28;20269;-67
2022/02/23 04:01:37;;;;;;;31.00;3.30;;;;;;;;;;5043271;28;20220;-67
2022/02/23 04:04:03;;;;;;;32.33;3.23;;;;;;;;;;5045842;28;20193;-67
2022/02/23 04:06:30;;;;;;;24.17;3.33;;;;;;;;;;5043550;28;20227;-67
2022/02/23 04:08:56;;;;;;;19.47;2.97;;;;;;;;;;5042799;28;20718;-67
2022/02/23 04:11:22;;;;;;;18.60;2.43;;;;;;;;;;5039941;28;20236;-68
2022/02/23 04:13:47;;;;;;;22.93;3.50;;;;;;;;;;5042654;28;20213;-67
2022/02/23 04:16:13;;;;;;;22.83;3.70;;;;;;;;;;5036685;28;20193;-67
2022/02/23 04:18:39;;;;;;;20.57;2.97;;;;;;;;;;5046689;28;20695;-67
2022/02/23 04:21:05;;;;;;;19.37;2.80;;;;;;;;;;5044670;28;20598;-67
2022/02/23 04:23:30;;;;;;;25.70;3.10;;;;;;;;;;5050206;28;20255;-67
2022/02/23 04:25:55;;;;;;;24.10;3.20;;;;;;;;;;5051374;28;20189;-67
2022/02/23 04:28:25;;;;;;;13.37;2.30;;;;;;;;;;5044387;28;20189;-67
2022/02/23 04:30:51;;;;;;;14.40;2.07;;;;;;;;;;5043221;28;20202;-67
2022/02/23 04:33:17;;;;;;;20.87;2.57;;;;;;;;;;5043941;28;20220;-67
2022/02/23 04:35:43;;;;;;;23.77;2.87;;;;;;;;;;5050923;28;20212;-67
2022/02/23 04:38:08;;;;;;;19.17;3.43;;;;;;;;;;5042540;28;20193;-67
2022/02/23 04:40:34;;;;;;;16.43;2.80;;;;;;;;;;5046053;28;20655;-67
2022/02/23 04:42:59;;;;;;;20.50;2.70;;;;;;;;;;5043390;28;20265;-67
2022/02/23 04:45:24;;;;;;;21.90;3.00;;;;;;;;;;5047152;28;20180;-67
2022/02/23 04:47:50;;;;;;;23.00;2.87;;;;;;;;;;5042945;28;20371;-68
2022/02/23 04:50:15;;;;;;;21.93;2.83;;;;;;;;;;5046985;28;20189;-67
2022/02/23 04:52:41;;;;;;;17.77;2.60;;;;;;;;;;5044859;28;20193;-67
2022/02/23 04:55:07;;;;;;;23.07;2.50;;;;;;;;;;5039051;28;20182;-67
2022/02/23 04:57:32;;;;;;;14.60;2.37;;;;;;;;;;5039884;28;20675;-68
2022/02/23 04:59:58;;;;;;;19.50;2.20;;;;;;;;;;5046403;28;20216;-67
2022/02/23 05:02:23;;;;;;;25.47;2.57;;;;;;;;;;5040962;28;20261;-67
2022/02/23 05:04:48;;;;;;;21.80;2.90;;;;;;;;;;5044029;28;20185;-67
2022/02/23 05:07:18;;;;;;;21.27;2.90;;;;;;;;;;5045170;28;20246;-67
2022/02/23 05:09:44;;;;;;;15.93;2.13;;;;;;;;;;5045760;28;20192;-67
2022/02/23 05:12:09;;;;;;;22.43;2.30;;;;;;;;;;5045300;28;20225;-67
2022/02/23 05:14:35;;;;;;;25.97;2.77;;;;;;;;;;5040574;28;20582;-67
2022/02/23 05:17:00;;;;;;;17.77;2.93;;;;;;;;;;5042824;28;20193;-67
2022/02/23 05:19:26;;;;;;;25.43;3.70;;;;;;;;;;5042219;28;20256;-67
2022/02/23 05:21:51;;;;;;;29.70;2.93;;;;;;;;;;5053392;28;20182;-67
2022/02/23 05:24:16;;;;;;;22.60;2.40;;;;;;;;;;5049353;28;20197;-67
2022/02/23 05:26:42;;;;;;;19.00;2.90;;;;;;;;;;5055433;28;20185;-68
2022/02/23 05:29:07;;;;;;;18.37;2.73;;;;;;;;;;5046619;28;20459;-67
2022/02/23 05:31:32;;;;;;;24.20;2.83;;;;;;;;;;5054068;28;20326;-67
2022/02/23 05:33:58;;;;;;;18.23;2.47;;;;;;;;;;5048122;28;20188;-67
2022/02/23 05:36:23;;;;;;;24.77;2.87;;;;;;;;;;5051612;28;20637;-68
2022/02/23 05:38:48;;;;;;;21.83;2.60;;;;;;;;;;5051736;28;20176;-67
2022/02/23 05:41:14;;;;;;;20.93;2.63;;;;;;;;;;5050965;28;20377;-67
2022/02/23 05:43:39;;;;;;;15.67;2.60;;;;;;;;;;5049181;28;20276;-67
2022/02/23 05:46:04;;;;;;;24.10;2.80;;;;;;;;;;5052361;28;20189;-67
2022/02/23 05:48:30;;;;;;;23.73;2.50;;;;;;;;;;5048434;28;20220;-67
2022/02/23 05:50:56;;;;;;;19.27;2.67;;;;;;;;;;5052567;28;20212;-67
2022/02/23 05:53:22;;;;;;;24.20;3.60;;;;;;;;;;5050102;28;20507;-67
2022/02/23 05:55:47;;;;;;;19.87;2.57;;;;;;;;;;5050868;28;21047;-68
2022/02/23 05:58:13;;;;;;;20.93;3.13;;;;;;;;;;5055268;28;20235;-68
2022/02/23 06:00:38;;;;;;;17.70;2.90;;;;;;;;;;5049529;28;20185;-68
2022/02/23 06:03:07;;;;;;;17.33;2.70;;;;;;;;;;5050822;28;20196;-68
2022/02/23 06:05:32;;;;;;;23.60;3.23;;;;;;;;;;5045689;28;20212;-68
2022/02/23 06:07:57;;;;;;;18.03;2.40;;;;;;;;;;5053889;28;20180;-68
2022/02/23 06:10:25;;;;;;;13.73;2.27;;;;;;;;;;5046124;28;20201;-68
2022/02/23 06:12:51;;;;;;;17.07;2.93;;;;;;;;;;5048778;28;20633;-68
2022/02/23 06:15:16;;;;;;;24.20;3.60;;;;;;;;;;5042472;28;20321;-67
2022/02/23 06:17:42;;;;;;;17.63;3.40;;;;;;;;;;5048664;28;20192;-67
2022/02/23 06:20:07;;;;;;;22.90;3.17;;;;;;;;;;5040843;28;20644;-67
2022/02/23 06:22:33;;;;;;;19.83;2.73;;;;;;;;;;5053670;28;20193;-67
2022/02/23 06:24:58;;;;;;;12.83;2.90;;;;;;;;;;5039535;28;20181;-67
2022/02/23 06:27:24;;;;;;;20.00;3.43;;;;;;;;;;5041826;28;20242;-67
2022/02/23 06:29:49;;;;;;;19.07;2.83;;;;;;;;;;5038679;28;20304;-68
2022/02/23 06:32:14;;;;;;;15.27;2.93;;;;;;;;;;5043791;28;20539;-68
2022/02/23 06:34:40;;;;;;;22.67;2.90;;;;;;;;;;5039522;28;20189;-67
2022/02/23 06:37:06;;;;;;;16.43;2.73;;;;;;;;;;5040427;28;20193;-68
2022/02/23 06:39:34;;;;;;;22.97;3.77;;;;;;;;;;5039930;28;20189;-67
2022/02/23 06:42:01;;;;;;;16.40;3.17;;;;;;;;;;5042633;28;20205;-67
2022/02/23 06:44:27;;;;;;;30.70;4.17;;;;;;;;;;5040657;28;20189;-67
2022/02/23 06:46:52;;;;;;;19.80;3.60;;;;;;;;;;5037431;28;20193;-68
2022/02/23 06:49:17;;;;;;;24.73;3.00;;;;;;;;;;5041301;28;20308;-67
2022/02/23 06:51:46;;;;;;;24.77;3.00;;;;;;;;;;5039520;28;20213;-68
2022/02/23 06:54:12;;;;;;;22.93;3.27;;;;;;;;;;5040667;28;20235;-67
2022/02/23 06:56:38;;;;;;;16.40;2.47;;;;;;;;;;5044121;28;20203;-67
2022/02/23 06:59:04;;;;;;;14.77;3.10;;;;;;;;;;5044733;28;20238;-67
2022/02/23 07:01:29;;;;;;;23.70;3.13;;;;;;;;;;5041477;28;20182;-66
2022/02/23 07:03:54;;;;;;;21.37;2.73;;;;;;;;;;5047733;28;20531;-68
2022/02/23 07:06:20;;;;;;;16.50;2.60;;;;;;;;;;5046401;28;20629;-67
2022/02/23 07:08:47;;;;;;;16.23;2.70;;;;;;;;;;5037972;28;20637;-68
2022/02/23 07:11:13;;;;;;;13.93;2.57;;;;;;;;;;5045662;28;20231;-68
2022/02/23 07:13:39;;;;;;;17.57;2.90;;;;;;;;;;5052634;28;20575;-68
2022/02/23 07:16:04;;;;;;;25.67;4.53;;;;;;;;;;5045693;28;20259;-68
2022/02/23 07:18:30;;;;;;;23.67;4.33;;;;;;;;;;5055571;28;20185;-68
2022/02/23 07:20:56;;;;;;;19.33;3.37;;;;;;;;;;5046161;28;20189;-68
2022/02/23 07:23:21;;;;;;;17.03;3.00;;;;;;;;;;5055553;28;20177;-67
2022/02/23 07:25:50;;;;;;;10.87;2.37;;;;;;;;;;5045160;28;20185;-68
2022/02/23 07:28:16;;;;;;;27.83;3.63;;;;;;;;;;5051259;28;20224;-67
2022/02/23 07:30:41;;;;;;;20.63;3.63;;;;;;;;;;5042564;28;20573;-67
2022/02/23 07:33:06;;;;;;;20.10;3.03;;;;;;;;;;5040350;28;20210;-68
2022/02/23 07:35:31;;;;;;;18.10;2.50;;;;;;;;;;5047334;28;20521;-68
2022/02/23 07:38:04;;;;;;;16.70;2.60;;;;;;;;;;5053446;28;20282;-68
2022/02/23 07:40:29;;;;;;;22.63;2.70;;;;;;;;;;5047232;28;20715;-68
2022/02/23 07:42:55;;;;;;;19.90;2.93;;;;;;;;;;5047402;28;20197;-68
2022/02/23 07:45:21;;;;;;;15.60;2.70;;;;;;;;;;5046963;28;20230;-68
2022/02/23 07:47:47;;;;;;;17.73;3.47;;;;;;;;;;5044768;28;20185;-68
2022/02/23 07:50:15;;;;;;;14.33;2.50;;;;;;;;;;5047638;28;20188;-68
2022/02/23 07:52:42;;;;;;;16.13;2.53;;;;;;;;;;5047459;28;20208;-68
2022/02/23 07:55:08;;;;;;;20.93;3.10;;;;;;;;;;5057018;28;20695;-67
2022/02/23 07:57:34;;;;;;;18.83;3.60;;;;;;;;;;5051745;28;20582;-68
2022/02/23 07:59:59;;;;;;;19.37;2.63;;;;;;;;;;5059714;28;20181;-67
2022/02/23 08:02:31;;;;;;;14.53;2.80;;;;;;;;;;5048930;28;20194;-67
2022/02/23 08:04:56;;;;;;;18.63;3.10;;;;;;;;;;5059075;28;20801;-67
2022/02/23 08:07:21;;;;;;;20.73;3.17;;;;;;;;;;5044102;28;20575;-67
2022/02/23 08:09:47;;;;;;;14.83;3.17;;;;;;;;;;5048784;28;20189;-67
2022/02/23 08:12:13;;;;;;;19.70;2.40;;;;;;;;;;5042273;28;20568;-67
2022/02/23 08:14:39;;;;;;;16.97;2.37;;;;;;;;;;5054912;28;20189;-67
2022/02/23 08:19:49;;;;;;;14.70;2.73;;;;;;;;;;5054963;28;20403;-67
2022/02/23 08:22:15;;;;;;;17.23;2.50;;;;;;;;;;5050983;28;20914;-67
2022/02/23 08:24:45;;;;;;;18.23;2.90;;;;;;;;;;5046531;28;20189;-67
2022/02/23 08:27:12;;;;;;;14.73;2.77;;;;;;;;;;5043675;28;20189;-67
2022/02/23 08:29:40;;;;;;;9.47;2.80;;;;;;;;;;5044975;28;20205;-67
2022/02/23 08:32:08;;;;;;;18.13;2.83;;;;;;;;;;5042286;28;20296;-67
2022/02/23 08:34:33;;;;;;;20.60;3.00;;;;;;;;;;5041120;28;20300;-67
2022/02/23 08:36:59;;;;;;;21.13;3.30;;;;;;;;;;5039922;28;20301;-67
2022/02/23 08:39:24;;;;;;;22.57;3.30;;;;;;;;;;5037177;28;20205;-67
2022/02/23 08:41:49;;;;;;;19.87;3.63;;;;;;;;;;5043655;28;20564;-67
2022/02/23 08:44:15;;;;;;;15.20;3.50;;;;;;;;;;5039155;28;20189;-67
2022/02/23 08:46:42;;;;;;;16.53;2.93;;;;;;;;;;5041960;28;20189;-67
2022/02/23 08:49:09;;;;;;;23.23;3.00;;;;;;;;;;5040284;28;20201;-67
2022/02/23 08:51:37;;;;;;;20.00;3.57;;;;;;;;;;5046600;28;20216;-67
2022/02/23 08:54:03;;;;;;;17.20;3.10;;;;;;;;;;5043038;28;20280;-67
2022/02/23 08:56:29;;;;;;;15.50;3.67;;;;;;;;;;5045896;28;20772;-67
2022/02/23 08:58:55;;;;;;;14.13;3.00;;;;;;;;;;5045470;28;20197;-66
2022/02/23 09:01:21;;;;;;;20.00;4.17;;;;;;;;;;5049916;28;20532;-67
2022/02/23 09:03:46;;;;;;;18.37;3.60;;;;;;;;;;5045368;28;20259;-67
2022/02/23 09:06:12;;;;;;;18.77;3.83;;;;;;;;;;5049813;28;20608;-66
2022/02/23 09:08:37;;;;;;;18.40;3.63;;;;;;;;;;5051243;28;20184;-66
2022/02/23 09:11:03;;;;;;;16.00;3.60;;;;;;;;;;5050477;28;20192;-67
2022/02/23 09:13:29;;;;;;;15.90;3.73;;;;;;;;;;5056519;28;20232;-67
2022/02/23 09:15:54;;;;;;;22.27;3.63;;;;;;;;;;5045795;28;20231;-67
2022/02/23 09:18:19;;;;;;;17.13;3.50;;;;;;;;;;5057395;28;20562;-67
2022/02/23 09:20:45;;;;;;;15.73;3.60;;;;;;;;;;5043647;28;20261;-67
2022/02/23 09:23:10;;;;;;;16.10;3.23;;;;;;;;;;5058470;28;20291;-67
2022/02/23 09:25:36;;;;;;;17.63;3.73;;;;;;;;;;5049433;28;20552;-67
2022/02/23 09:28:01;;;;;;;16.60;3.73;;;;;;;;;;5056420;28;20181;-67
2022/02/23 09:30:27;;;;;;;11.57;3.00;;;;;;;;;;5045153;28;20232;-67
2022/02/23 09:32:54;;;;;;;14.50;3.27;;;;;;;;;;5057059;28;20356;-67
2022/02/23 09:35:20;;;;;;;15.70;3.20;;;;;;;;;;5046787;28;20189;-67
2022/02/23 09:37:46;;;;;;;13.53;3.33;;;;;;;;;;5047918;28;20271;-67
2022/02/23 09:40:14;;;;;;;16.63;3.50;;;;;;;;;;5045900;28;20209;-67
2022/02/23 09:42:40;;;;;;;14.53;3.10;;;;;;;;;;5052592;28;20200;-67
2022/02/23 09:45:06;;;;;;;17.23;3.80;;;;;;;;;;5050870;28;20207;-66
2022/02/23 09:47:32;;;;;;;14.40;2.93;;;;;;;;;;5049317;28;20865;-66
2022/02/23 09:49:59;;;;;;;9.73;2.60;;;;;;;;;;5054129;28;20195;-66
2022/02/23 09:52:25;;;;;;;22.27;3.87;;;;;;;;;;5048653;28;20262;-66
2022/02/23 09:54:51;;;;;;;17.90;3.03;;;;;;;;;;5046003;28;20189;-66
2022/02/23 09:57:18;;;;;;;17.97;2.90;;;;;;;;;;5042612;28;20732;-66
2022/02/23 09:59:43;;;;;;;14.33;2.40;;;;;;;;;;5046666;28;20266;-66
2022/02/23 10:02:12;;;;;;;15.27;4.03;;;;;;;;;;5041341;28;20230;-66
2022/02/23 10:04:37;;;;;;;15.73;2.93;;;;;;;;;;5050943;28;20688;-66
2022/02/23 10:07:05;;;;;;;15.40;3.07;;;;;;;;;;5040986;28;20308;-67
2022/02/23 10:09:40;;;;;;;12.87;2.50;;;;;;;;;;5048351;28;20236;-66
2022/02/23 10:12:06;;;;;;;13.50;3.47;;;;;;;;;;5045139;28;20273;-66
2022/02/23 10:14:31;;;;;;;12.10;2.73;;;;;;;;;;5050863;28;20190;-66
2022/02/23 10:16:57;;;;;;;15.77;2.83;;;;;;;;;;5037456;28;20182;-66
2022/02/23 10:19:22;;;;;;;12.57;2.67;;;;;;;;;;5043203;28;20221;-66
2022/02/23 10:21:56;;;;;;;15.37;2.77;;;;;;;;;;5045570;28;20913;-66
2022/02/23 10:24:38;;;;;;;15.77;2.17;;;;;;;;;;5046025;28;20504;-66
2022/02/23 10:27:04;;;;;;;11.53;2.37;;;;;;;;;;5041443;28;20192;-67
2022/02/23 10:29:33;;;;;;;12.07;2.40;;;;;;;;;;5042805;28;20342;-66
2022/02/23 10:32:00;;;;;;;13.17;2.83;;;;;;;;;;5052798;28;20262;-66
2022/02/23 10:34:26;;;;;;;13.93;2.30;;;;;;;;;;5044365;28;20225;-66
2022/02/23 10:37:04;;;;;;;10.20;1.97;;;;;;;;;;5051543;28;20216;-66
2022/02/23 10:39:36;;;;;;;12.63;2.20;;;;;;;;;;5048945;28;20192;-65
2022/02/23 10:42:13;;;;;;;14.07;2.03;;;;;;;;;;5055818;28;20787;-67
2022/02/23 10:44:43;;;;;;;9.40;2.00;;;;;;;;;;5053301;28;20180;-66
2022/02/23 10:47:33;;;;;;;10.83;2.13;;;;;;;;;;5038476;28;20261;-66
2022/02/23 10:50:05;;;;;;;14.47;2.10;;;;;;;;;;5047745;28;20204;-66
2022/02/23 10:52:33;;;;;;;13.50;2.20;;;;;;;;;;5046126;28;20576;-67
2022/02/23 10:55:15;;;;;;;13.82;1.70;;;;;;;;;;5051179;28;20641;-67
2022/02/23 10:57:46;;;;;;;8.57;2.20;;;;;;;;;;5043224;28;20228;-67
2022/02/23 11:00:17;;;;;;;9.55;1.73;;;;;;;;;;5040936;28;20216;-67
2022/02/23 11:02:42;;;;;;;9.63;1.67;;;;;;;;;;5041730;28;20181;-67
2022/02/23 11:05:07;;;;;;;5.88;1.50;;;;;;;;;;5055895;28;20288;-67
2022/02/23 11:07:33;;;;;;;10.18;1.88;;;;;;;;;;5043673;28;20188;-67
2022/02/23 11:09:58;;;;;;;8.65;1.67;;;;;;;;;;5048707;28;20288;-67
2022/02/23 11:12:25;;;;;;;9.10;1.75;;;;;;;;;;5048256;28;20236;-67
2022/02/23 11:14:50;;;;;;;10.35;1.58;;;;;;;;;;5046147;28;20197;-67
2022/02/23 11:17:16;;;;;;;6.70;1.63;;;;;;;;;;5049467;28;20661;-67
2022/02/23 11:19:44;;;;;;;4.57;1.23;;;;;;;;;;5046489;28;20612;-66
2022/02/23 11:22:09;;;;;;;7.95;1.50;;;;;;;;;;5042895;28;20696;-66
2022/02/23 11:24:35;;;;;;;9.25;1.20;;;;;;;;;;5043687;28;20207;-66
2022/02/23 11:27:05;;;;;;;8.90;1.30;;;;;;;;;;5047184;28;20193;-65
2022/02/23 11:29:39;;;;;;;7.22;1.45;;;;;;;;;;5045958;28;20196;-66
2022/02/23 11:32:07;;;;;;;7.63;1.40;;;;;;;;;;5051791;28;20675;-65
2022/02/23 11:34:36;;;;;;;4.85;1.30;;;;;;;;;;5044119;28;21609;-66
2022/02/23 11:37:09;;;;;;;9.23;1.85;;;;;;;;;;5045160;28;20185;-66
2022/02/23 11:39:38;;;;;;;9.35;1.48;;;;;;;;;;5046885;28;20220;-66
2022/02/23 11:42:07;;;;;;;10.95;1.65;;;;;;;;;;5052215;28;20265;-66
2022/02/23 11:44:37;;;;;;;8.63;1.83;;;;;;;;;;5042544;28;20291;-66
2022/02/23 11:47:17;;;;;;;9.10;1.70;;;;;;;;;;5042328;28;20219;-66
2022/02/23 11:49:54;;;;;;;9.05;1.85;;;;;;;;;;5042805;28;20234;-66
2022/02/23 11:52:26;;;;;;;8.45;2.08;;;;;;;;;;5042572;28;20208;-66
2022/02/23 11:55:21;;;;;;;12.35;2.60;;;;;;;;;;5046106;28;20271;-66
2022/02/23 11:57:51;;;;;;;11.77;2.90;;;;;;;;;;5039038;28;20505;-66
2022/02/23 12:00:43;;;;;;;10.45;2.38;;;;;;;;;;5053154;28;20853;-66
2022/02/23 12:03:22;;;;;;;8.50;2.75;;;;;;;;;;5034194;28;20208;-67
2022/02/23 12:05:59;;;;;;;7.28;2.38;;;;;;;;;;5038139;28;20235;-66
2022/02/23 12:08:44;;;;;;;14.35;3.15;;;;;;;;;;5045882;28;20605;-67
2022/02/23 12:11:13;;;;;;;7.03;2.40;;;;;;;;;;5040624;28;20209;-70
2022/02/23 12:13:42;;;;;;;11.82;2.97;;;;;;;;;;5041016;28;20186;-66
2022/02/23 12:16:27;;;;;;;14.70;2.60;;;;;;;;;;5043071;28;20182;-67
2022/02/23 12:18:58;;;;;;;6.93;2.28;;;;;;;;;;5040398;28;20194;-66
2022/02/23 12:21:45;;;;;;;7.05;2.70;;;;;;;;;;5047316;28;20172;-66
2022/02/23 12:24:21;;;;;;;11.63;2.55;;;;;;;;;;5038574;28;20189;-66
2022/02/23 12:26:53;;;;;;;11.02;3.22;;;;;;;;;;5042057;28;20245;-66
2022/02/23 12:29:25;;;;;;;12.30;2.50;;;;;;;;;;5042539;28;20669;-65
2022/02/23 12:31:51;;;;;;;13.35;2.85;;;;;;;;;;5047643;28;20214;-65
2022/02/23 12:34:19;;;;;;;14.25;2.85;;;;;;;;;;5042421;28;20665;-65
2022/02/23 12:36:49;;;;;;;15.13;2.30;;;;;;;;;;5048196;28;20189;-65
2022/02/23 12:39:22;;;;;;;12.73;2.60;;;;;;;;;;5043073;28;20278;-65
2022/02/23 12:41:51;;;;;;;9.40;2.65;;;;;;;;;;5044001;28;20181;-65
2022/02/23 12:44:20;;;;;;;5.85;2.03;;;;;;;;;;5043857;28;20178;-66
2022/02/23 12:46:51;;;;;;;10.20;2.40;;;;;;;;;;5035086;28;20186;-66
2022/02/23 12:49:18;;;;;;;9.25;2.10;;;;;;;;;;5045779;28;20391;-65
2022/02/23 12:51:44;;;;;;;10.15;2.05;;;;;;;;;;5047519;28;20696;-65
2022/02/23 12:54:13;;;;;;;13.88;2.53;;;;;;;;;;5044348;28;20188;-66
2022/02/23 12:56:44;;;;;;;16.73;2.13;;;;;;;;;;5038418;28;20928;-66
2022/02/23 12:59:18;;;;;;;10.88;2.13;;;;;;;;;;5038653;28;20208;-66
2022/02/23 13:01:50;;;;;;;9.88;1.90;;;;;;;;;;5044153;28;20185;-66
2022/02/23 13:04:38;;;;;;;10.70;1.63;;;;;;;;;;5047225;28;20188;-66
2022/02/23 13:07:10;;;;;;;9.57;1.80;;;;;;;;;;5039187;28;20565;-67
2022/02/23 13:09:38;;;;;;;7.88;1.55;;;;;;;;;;5046994;28;20292;-67
2022/02/23 13:12:06;;;;;;;9.90;1.90;;;;;;;;;;5042117;28;20388;-65
2022/02/23 13:14:41;;;;;;;11.80;1.85;;;;;;;;;;5042029;28;20197;-67
2022/02/23 13:17:09;;;;;;;7.60;1.60;;;;;;;;;;5054346;28;20392;-66
2022/02/23 13:19:37;;;;;;;8.32;1.83;;;;;;;;;;5044713;28;20266;-67
2022/02/23 13:22:03;;;;;;;6.20;1.30;;;;;;;;;;5048758;28;20181;-67
2022/02/23 13:24:34;;;;;;;6.60;1.85;;;;;;;;;;5040707;28;20213;-67
2022/02/23 13:27:04;;;;;;;7.45;1.67;;;;;;;;;;5041951;28;20181;-67
2022/02/23 13:29:30;;;;;;;6.22;1.48;;;;;;;;;;5041845;28;20185;-66
2022/02/23 13:31:58;;;;;;;9.05;1.73;;;;;;;;;;5039872;28;20206;-66
2022/02/23 13:34:43;;;;;;;8.57;1.83;;;;;;;;;;5040846;28;20640;-66
2022/02/23 13:37:14;;;;;;;8.00;1.90;;;;;;;;;;5043496;28;20459;-66
2022/02/23 13:39:41;;;;;;;8.52;1.50;;;;;;;;;;5042939;28;20185;-67
2022/02/23 13:42:09;;;;;;;7.85;1.75;;;;;;;;;;5043835;28;20556;-67
2022/02/23 13:44:38;;;;;;;9.30;1.80;;;;;;;;;;5042506;28;20284;-67
2022/02/23 13:47:10;;;;;;;12.23;2.10;;;;;;;;;;5045265;28;20189;-67
2022/02/23 13:50:07;;;;;;;6.38;1.55;;;;;;;;;;5034320;28;20197;-67
2022/02/23 13:52:38;;;;;;;5.85;1.63;;;;;;;;;;5041884;28;20296;-67
2022/02/23 13:55:08;;;;;;;10.50;1.67;;;;;;;;;;5041331;28;20483;-67
2022/02/23 13:58:04;;;;;;;6.57;1.33;;;;;;;;;;5044184;28;20606;-67
2022/02/23 14:00:37;;;;;;;12.48;1.52;;;;;;;;;;5044588;28;20233;-67
2022/02/23 14:03:14;;;;;;;8.38;1.40;;;;;;;;;;5040071;28;20204;-67
2022/02/23 14:05:52;;;;;;;11.77;1.48;;;;;;;;;;5037707;28;20209;-66
2022/02/23 14:08:18;;;;;;;10.30;2.03;;;;;;;;;;5042107;28;20213;-67
2022/02/23 14:10:44;;;;;;;8.05;1.50;;;;;;;;;;5039269;28;20762;-67
2022/02/23 14:13:13;;;;;;;6.38;1.45;;;;;;;;;;5058269;28;20232;-68
2022/02/23 14:15:40;;;;;;;6.65;1.55;;;;;;;;;;5040794;28;20189;-67
2022/02/23 14:18:22;;;;;;;9.38;1.25;;;;;;;;;;5042928;28;20276;-67
2022/02/23 14:20:49;;;;;;;7.60;1.75;;;;;;;;;;5043484;28;20663;-67
2022/02/23 14:23:17;;;;;;;7.53;1.92;;;;;;;;;;5037122;28;20625;-66
2022/02/23 14:26:10;;;;;;;7.32;1.38;;;;;;;;;;5044172;28;20181;-66
2022/02/23 14:28:41;;;;;;;9.73;2.03;;;;;;;;;;5039328;28;20197;-67
2022/02/23 14:31:28;;;;;;;5.97;1.45;;;;;;;;;;5042123;28;20193;-66
2022/02/23 14:33:57;;;;;;;6.68;1.67;;;;;;;;;;5039846;28;20201;-66
2022/02/23 14:36:23;;;;;;;8.88;1.83;;;;;;;;;;5037819;28;20185;-67
2022/02/23 14:38:49;;;;;;;9.35;1.63;;;;;;;;;;5040713;28;20650;-67